sensor_id;sensor_type;location;lat;lon;timestamp;P1;durP1;ratioP1;P2;durP2;ratioP2
10154;SDS011;5118;48.570;7.916;2023-05-23T00:00:05;20.10;;;18.07;;
10154;SDS011;5118;48.570;7.916;2023-05-23T00:02:37;19.60;;;17.73;;
10154;SDS011;5118;48.570;7.916;2023-05-23T00:05:06;20.60;;;18.70;;
10154;SDS011;5118;48.570;7.916;2023-05-23T00:07:36;20.03;;;18.20;;
10154;SDS011;5118;48.570;7.916;2023-05-23T00:10:05;20.63;;;18.67;;
10154;SDS011;5118;48.570;7.916;2023-05-23T00:12:34;20.13;;;18.23;;
10154;SDS011;5118;48.570;7.916;2023-05-23T00:15:03;20.97;;;18.97;;
10154;SDS011;5118;48.570;7.916;2023-05-23T00:17:34;20.63;;;18.67;;
10154;SDS011;5118;48.570;7.916;2023-05-23T00:20:04;20.97;;;19.00;;
10154;SDS011;5118;48.570;7.916;2023-05-23T00:22:36;21.00;;;18.90;;
10154;SDS011;5118;48.570;7.916;2023-05-23T00:25:09;20.97;;;19.07;;
10154;SDS011;5118;48.570;7.916;2023-05-23T00:27:38;20.83;;;18.93;;
10154;SDS011;5118;48.570;7.916;2023-05-23T00:30:06;21.70;;;18.87;;
10154;SDS011;5118;48.570;7.916;2023-05-23T00:32:35;20.70;;;18.53;;
10154;SDS011;5118;48.570;7.916;2023-05-23T00:35:04;21.27;;;19.17;;
10154;SDS011;5118;48.570;7.916;2023-05-23T00:37:33;19.60;;;17.67;;
10154;SDS011;5118;48.570;7.916;2023-05-23T00:40:03;21.33;;;19.43;;
10154;SDS011;5118;48.570;7.916;2023-05-23T00:42:33;21.47;;;19.37;;
10154;SDS011;5118;48.570;7.916;2023-05-23T00:45:02;20.93;;;18.93;;
10154;SDS011;5118;48.570;7.916;2023-05-23T00:47:32;21.90;;;19.80;;
10154;SDS011;5118;48.570;7.916;2023-05-23T00:50:02;22.87;;;20.43;;
10154;SDS011;5118;48.570;7.916;2023-05-23T00:52:30;23.87;;;21.23;;
10154;SDS011;5118;48.570;7.916;2023-05-23T00:54:59;23.30;;;20.83;;
10154;SDS011;5118;48.570;7.916;2023-05-23T00:57:29;22.40;;;20.20;;
10154;SDS011;5118;48.570;7.916;2023-05-23T01:00:00;23.37;;;21.07;;
10154;SDS011;5118;48.570;7.916;2023-05-23T01:02:30;22.57;;;20.40;;
10154;SDS011;5118;48.570;7.916;2023-05-23T01:05:02;24.27;;;21.77;;
10154;SDS011;5118;48.570;7.916;2023-05-23T01:07:31;21.57;;;19.57;;
10154;SDS011;5118;48.570;7.916;2023-05-23T01:09:59;23.23;;;20.90;;
10154;SDS011;5118;48.570;7.916;2023-05-23T01:12:31;23.17;;;20.90;;
10154;SDS011;5118;48.570;7.916;2023-05-23T01:15:06;23.33;;;21.03;;
10154;SDS011;5118;48.570;7.916;2023-05-23T01:17:38;21.53;;;19.37;;
10154;SDS011;5118;48.570;7.916;2023-05-23T01:20:15;23.00;;;20.63;;
10154;SDS011;5118;48.570;7.916;2023-05-23T01:22:58;22.73;;;20.47;;
10154;SDS011;5118;48.570;7.916;2023-05-23T01:25:46;22.90;;;20.70;;
10154;SDS011;5118;48.570;7.916;2023-05-23T01:28:26;21.60;;;19.57;;
10154;SDS011;5118;48.570;7.916;2023-05-23T01:30:59;21.60;;;19.33;;
10154;SDS011;5118;48.570;7.916;2023-05-23T01:33:31;21.13;;;18.37;;
10154;SDS011;5118;48.570;7.916;2023-05-23T01:36:01;22.53;;;20.20;;
10154;SDS011;5118;48.570;7.916;2023-05-23T01:38:30;21.63;;;19.40;;
10154;SDS011;5118;48.570;7.916;2023-05-23T01:40:58;21.30;;;19.27;;
10154;SDS011;5118;48.570;7.916;2023-05-23T01:43:28;22.53;;;20.33;;
10154;SDS011;5118;48.570;7.916;2023-05-23T01:45:57;22.23;;;20.00;;
10154;SDS011;5118;48.570;7.916;2023-05-23T01:48:27;21.53;;;19.33;;
10154;SDS011;5118;48.570;7.916;2023-05-23T01:50:56;22.77;;;20.40;;
10154;SDS011;5118;48.570;7.916;2023-05-23T01:53:25;21.70;;;19.33;;
10154;SDS011;5118;48.570;7.916;2023-05-23T01:55:56;22.87;;;20.57;;
10154;SDS011;5118;48.570;7.916;2023-05-23T01:58:30;21.13;;;19.03;;
10154;SDS011;5118;48.570;7.916;2023-05-23T02:01:00;22.70;;;18.03;;
10154;SDS011;5118;48.570;7.916;2023-05-23T02:03:29;21.53;;;19.43;;
10154;SDS011;5118;48.570;7.916;2023-05-23T02:05:57;22.23;;;19.67;;
10154;SDS011;5118;48.570;7.916;2023-05-23T02:08:26;20.73;;;17.70;;
10154;SDS011;5118;48.570;7.916;2023-05-23T02:10:54;20.40;;;18.10;;
10154;SDS011;5118;48.570;7.916;2023-05-23T02:13:23;21.10;;;19.13;;
10154;SDS011;5118;48.570;7.916;2023-05-23T02:15:52;20.80;;;18.60;;
10154;SDS011;5118;48.570;7.916;2023-05-23T02:18:21;21.37;;;19.17;;
10154;SDS011;5118;48.570;7.916;2023-05-23T02:20:52;20.67;;;18.73;;
10154;SDS011;5118;48.570;7.916;2023-05-23T02:23:21;20.47;;;18.37;;
10154;SDS011;5118;48.570;7.916;2023-05-23T02:25:50;20.43;;;18.53;;
10154;SDS011;5118;48.570;7.916;2023-05-23T02:28:18;18.73;;;16.83;;
10154;SDS011;5118;48.570;7.916;2023-05-23T02:30:48;18.77;;;16.63;;
10154;SDS011;5118;48.570;7.916;2023-05-23T02:33:18;18.87;;;16.87;;
10154;SDS011;5118;48.570;7.916;2023-05-23T02:35:47;19.20;;;17.40;;
10154;SDS011;5118;48.570;7.916;2023-05-23T02:38:17;18.13;;;16.47;;
10154;SDS011;5118;48.570;7.916;2023-05-23T02:40:46;17.97;;;16.17;;
10154;SDS011;5118;48.570;7.916;2023-05-23T02:43:16;17.93;;;16.20;;
10154;SDS011;5118;48.570;7.916;2023-05-23T02:45:45;18.03;;;16.33;;
10154;SDS011;5118;48.570;7.916;2023-05-23T02:48:13;19.07;;;15.93;;
10154;SDS011;5118;48.570;7.916;2023-05-23T02:50:45;17.50;;;15.73;;
10154;SDS011;5118;48.570;7.916;2023-05-23T02:53:13;19.67;;;17.20;;
10154;SDS011;5118;48.570;7.916;2023-05-23T02:55:42;18.90;;;17.13;;
10154;SDS011;5118;48.570;7.916;2023-05-23T02:58:10;19.93;;;17.87;;
10154;SDS011;5118;48.570;7.916;2023-05-23T03:00:39;20.77;;;18.77;;
10154;SDS011;5118;48.570;7.916;2023-05-23T03:03:09;19.50;;;17.70;;
10154;SDS011;5118;48.570;7.916;2023-05-23T03:05:38;21.20;;;18.53;;
10154;SDS011;5118;48.570;7.916;2023-05-23T03:08:09;21.07;;;18.97;;
10154;SDS011;5118;48.570;7.916;2023-05-23T03:10:38;20.30;;;18.33;;
10154;SDS011;5118;48.570;7.916;2023-05-23T03:13:07;18.77;;;16.93;;
10154;SDS011;5118;48.570;7.916;2023-05-23T03:15:36;19.20;;;17.40;;
10154;SDS011;5118;48.570;7.916;2023-05-23T03:18:04;19.83;;;17.93;;
10154;SDS011;5118;48.570;7.916;2023-05-23T03:20:33;19.37;;;17.33;;
10154;SDS011;5118;48.570;7.916;2023-05-23T03:23:02;19.00;;;17.07;;
10154;SDS011;5118;48.570;7.916;2023-05-23T03:25:32;19.20;;;17.20;;
10154;SDS011;5118;48.570;7.916;2023-05-23T03:28:01;19.53;;;17.53;;
10154;SDS011;5118;48.570;7.916;2023-05-23T03:30:30;18.40;;;16.70;;
10154;SDS011;5118;48.570;7.916;2023-05-23T03:32:58;18.93;;;17.23;;
10154;SDS011;5118;48.570;7.916;2023-05-23T03:35:28;19.57;;;17.77;;
10154;SDS011;5118;48.570;7.916;2023-05-23T03:37:57;19.43;;;17.53;;
10154;SDS011;5118;48.570;7.916;2023-05-23T03:40:25;20.50;;;18.60;;
10154;SDS011;5118;48.570;7.916;2023-05-23T03:43:02;20.63;;;18.47;;
10154;SDS011;5118;48.570;7.916;2023-05-23T03:45:34;20.20;;;18.30;;
10154;SDS011;5118;48.570;7.916;2023-05-23T03:48:10;21.47;;;19.43;;
10154;SDS011;5118;48.570;7.916;2023-05-23T03:50:40;19.83;;;17.77;;
10154;SDS011;5118;48.570;7.916;2023-05-23T03:53:10;20.43;;;17.93;;
10154;SDS011;5118;48.570;7.916;2023-05-23T03:55:39;19.40;;;17.57;;
10154;SDS011;5118;48.570;7.916;2023-05-23T03:58:09;22.00;;;19.97;;
10154;SDS011;5118;48.570;7.916;2023-05-23T04:00:43;19.27;;;17.47;;
10154;SDS011;5118;48.570;7.916;2023-05-23T04:03:14;20.50;;;18.47;;
10154;SDS011;5118;48.570;7.916;2023-05-23T04:05:44;20.27;;;18.17;;
10154;SDS011;5118;48.570;7.916;2023-05-23T04:08:12;22.53;;;20.43;;
10154;SDS011;5118;48.570;7.916;2023-05-23T04:10:41;22.57;;;20.33;;
10154;SDS011;5118;48.570;7.916;2023-05-23T04:13:11;24.40;;;22.00;;
10154;SDS011;5118;48.570;7.916;2023-05-23T04:15:41;25.80;;;23.10;;
10154;SDS011;5118;48.570;7.916;2023-05-23T04:18:11;26.67;;;24.03;;
10154;SDS011;5118;48.570;7.916;2023-05-23T04:20:41;27.07;;;24.27;;
10154;SDS011;5118;48.570;7.916;2023-05-23T04:23:10;27.00;;;24.23;;
10154;SDS011;5118;48.570;7.916;2023-05-23T04:25:41;28.27;;;24.93;;
10154;SDS011;5118;48.570;7.916;2023-05-23T04:28:24;28.13;;;25.17;;
10154;SDS011;5118;48.570;7.916;2023-05-23T04:30:53;27.33;;;24.63;;
10154;SDS011;5118;48.570;7.916;2023-05-23T04:33:25;29.20;;;26.10;;
10154;SDS011;5118;48.570;7.916;2023-05-23T04:35:54;28.17;;;25.33;;
10154;SDS011;5118;48.570;7.916;2023-05-23T04:38:23;27.53;;;24.63;;
10154;SDS011;5118;48.570;7.916;2023-05-23T04:40:52;27.27;;;24.37;;
10154;SDS011;5118;48.570;7.916;2023-05-23T04:43:44;28.47;;;25.57;;
10154;SDS011;5118;48.570;7.916;2023-05-23T04:46:24;29.07;;;26.07;;
10154;SDS011;5118;48.570;7.916;2023-05-23T04:49:25;29.70;;;26.60;;
10154;SDS011;5118;48.570;7.916;2023-05-23T04:51:55;30.00;;;26.93;;
10154;SDS011;5118;48.570;7.916;2023-05-23T04:54:26;31.00;;;27.67;;
10154;SDS011;5118;48.570;7.916;2023-05-23T04:56:57;30.63;;;27.53;;
10154;SDS011;5118;48.570;7.916;2023-05-23T04:59:29;32.13;;;28.73;;
10154;SDS011;5118;48.570;7.916;2023-05-23T05:01:58;29.97;;;26.97;;
10154;SDS011;5118;48.570;7.916;2023-05-23T05:04:26;29.23;;;26.10;;
10154;SDS011;5118;48.570;7.916;2023-05-23T05:06:55;31.23;;;28.03;;
10154;SDS011;5118;48.570;7.916;2023-05-23T05:09:23;34.67;;;30.80;;
10154;SDS011;5118;48.570;7.916;2023-05-23T05:11:52;37.77;;;33.13;;
10154;SDS011;5118;48.570;7.916;2023-05-23T05:14:21;36.70;;;32.80;;
10154;SDS011;5118;48.570;7.916;2023-05-23T05:16:50;35.63;;;32.00;;
10154;SDS011;5118;48.570;7.916;2023-05-23T05:19:21;36.83;;;32.90;;
10154;SDS011;5118;48.570;7.916;2023-05-23T05:21:50;35.97;;;31.13;;
10154;SDS011;5118;48.570;7.916;2023-05-23T05:24:18;39.27;;;35.07;;
10154;SDS011;5118;48.570;7.916;2023-05-23T05:26:48;37.17;;;33.20;;
10154;SDS011;5118;48.570;7.916;2023-05-23T05:29:19;35.13;;;31.30;;
10154;SDS011;5118;48.570;7.916;2023-05-23T05:31:48;34.53;;;31.00;;
10154;SDS011;5118;48.570;7.916;2023-05-23T05:34:18;37.70;;;33.13;;
10154;SDS011;5118;48.570;7.916;2023-05-23T05:36:48;38.93;;;34.87;;
10154;SDS011;5118;48.570;7.916;2023-05-23T05:39:23;38.85;;;33.88;;
10154;SDS011;5118;48.570;7.916;2023-05-23T05:41:53;38.57;;;34.40;;
10154;SDS011;5118;48.570;7.916;2023-05-23T05:44:22;38.47;;;34.57;;
10154;SDS011;5118;48.570;7.916;2023-05-23T05:46:51;38.73;;;34.80;;
10154;SDS011;5118;48.570;7.916;2023-05-23T05:49:20;38.37;;;34.23;;
10154;SDS011;5118;48.570;7.916;2023-05-23T05:51:49;37.87;;;33.27;;
10154;SDS011;5118;48.570;7.916;2023-05-23T05:54:17;38.60;;;33.63;;
10154;SDS011;5118;48.570;7.916;2023-05-23T05:56:46;36.65;;;32.80;;
10154;SDS011;5118;48.570;7.916;2023-05-23T05:59:15;38.07;;;34.20;;
10154;SDS011;5118;48.570;7.916;2023-05-23T06:01:43;38.20;;;34.35;;
10154;SDS011;5118;48.570;7.916;2023-05-23T06:04:12;36.83;;;32.88;;
10154;SDS011;5118;48.570;7.916;2023-05-23T06:06:42;37.35;;;33.45;;
10154;SDS011;5118;48.570;7.916;2023-05-23T06:09:11;36.47;;;32.58;;
10154;SDS011;5118;48.570;7.916;2023-05-23T06:11:41;37.55;;;33.70;;
10154;SDS011;5118;48.570;7.916;2023-05-23T06:14:10;39.10;;;35.05;;
10154;SDS011;5118;48.570;7.916;2023-05-23T06:16:42;37.63;;;33.92;;
10154;SDS011;5118;48.570;7.916;2023-05-23T06:19:11;36.55;;;32.92;;
10154;SDS011;5118;48.570;7.916;2023-05-23T06:21:40;36.38;;;32.78;;
10154;SDS011;5118;48.570;7.916;2023-05-23T06:24:11;36.58;;;32.80;;
10154;SDS011;5118;48.570;7.916;2023-05-23T06:26:40;37.00;;;33.30;;
10154;SDS011;5118;48.570;7.916;2023-05-23T06:29:08;36.87;;;33.03;;
10154;SDS011;5118;48.570;7.916;2023-05-23T06:31:36;34.70;;;31.38;;
10154;SDS011;5118;48.570;7.916;2023-05-23T06:34:05;34.97;;;31.33;;
10154;SDS011;5118;48.570;7.916;2023-05-23T06:36:33;35.08;;;31.48;;
10154;SDS011;5118;48.570;7.916;2023-05-23T06:39:02;34.97;;;31.35;;
10154;SDS011;5118;48.570;7.916;2023-05-23T06:41:31;36.38;;;32.38;;
10154;SDS011;5118;48.570;7.916;2023-05-23T06:44:00;36.45;;;32.67;;
10154;SDS011;5118;48.570;7.916;2023-05-23T06:46:29;35.10;;;31.58;;
10154;SDS011;5118;48.570;7.916;2023-05-23T06:48:58;36.42;;;32.92;;
10154;SDS011;5118;48.570;7.916;2023-05-23T06:51:40;35.58;;;31.95;;
10154;SDS011;5118;48.570;7.916;2023-05-23T06:54:09;37.47;;;33.87;;
10154;SDS011;5118;48.570;7.916;2023-05-23T06:56:39;36.75;;;33.15;;
10154;SDS011;5118;48.570;7.916;2023-05-23T06:59:08;37.22;;;33.53;;
10154;SDS011;5118;48.570;7.916;2023-05-23T07:01:37;36.63;;;32.83;;
10154;SDS011;5118;48.570;7.916;2023-05-23T07:04:06;37.22;;;33.45;;
10154;SDS011;5118;48.570;7.916;2023-05-23T07:06:34;35.92;;;32.13;;
10154;SDS011;5118;48.570;7.916;2023-05-23T07:09:04;32.30;;;29.20;;
10154;SDS011;5118;48.570;7.916;2023-05-23T07:11:33;33.08;;;29.77;;
10154;SDS011;5118;48.570;7.916;2023-05-23T07:14:04;35.08;;;31.58;;
10154;SDS011;5118;48.570;7.916;2023-05-23T07:16:36;29.25;;;26.40;;
10154;SDS011;5118;48.570;7.916;2023-05-23T07:19:06;27.75;;;25.23;;
10154;SDS011;5118;48.570;7.916;2023-05-23T07:21:41;29.23;;;26.23;;
10154;SDS011;5118;48.570;7.916;2023-05-23T07:24:13;30.98;;;27.70;;
10154;SDS011;5118;48.570;7.916;2023-05-23T07:26:41;30.70;;;27.70;;
10154;SDS011;5118;48.570;7.916;2023-05-23T07:29:11;33.20;;;30.00;;
10154;SDS011;5118;48.570;7.916;2023-05-23T07:31:41;32.45;;;29.20;;
10154;SDS011;5118;48.570;7.916;2023-05-23T07:34:12;33.95;;;30.65;;
10154;SDS011;5118;48.570;7.916;2023-05-23T07:36:50;32.42;;;29.13;;
10154;SDS011;5118;48.570;7.916;2023-05-23T07:39:20;28.98;;;26.38;;
10154;SDS011;5118;48.570;7.916;2023-05-23T07:41:51;27.83;;;25.02;;
10154;SDS011;5118;48.570;7.916;2023-05-23T07:44:22;32.03;;;28.92;;
10154;SDS011;5118;48.570;7.916;2023-05-23T07:46:52;31.27;;;28.27;;
10154;SDS011;5118;48.570;7.916;2023-05-23T07:49:21;31.08;;;28.17;;
10154;SDS011;5118;48.570;7.916;2023-05-23T07:51:49;28.02;;;25.33;;
10154;SDS011;5118;48.570;7.916;2023-05-23T07:54:18;29.77;;;26.77;;
10154;SDS011;5118;48.570;7.916;2023-05-23T07:56:51;32.28;;;29.13;;
10154;SDS011;5118;48.570;7.916;2023-05-23T07:59:21;31.20;;;28.25;;
10154;SDS011;5118;48.570;7.916;2023-05-23T08:01:50;29.67;;;26.90;;
10154;SDS011;5118;48.570;7.916;2023-05-23T08:04:21;29.55;;;26.63;;
10154;SDS011;5118;48.570;7.916;2023-05-23T08:06:51;27.83;;;25.10;;
10154;SDS011;5118;48.570;7.916;2023-05-23T08:09:53;27.42;;;24.95;;
10154;SDS011;5118;48.570;7.916;2023-05-23T08:12:22;28.50;;;25.80;;
10154;SDS011;5118;48.570;7.916;2023-05-23T08:15:00;25.77;;;23.40;;
10154;SDS011;5118;48.570;7.916;2023-05-23T08:17:35;26.23;;;23.33;;
10154;SDS011;5118;48.570;7.916;2023-05-23T08:20:04;24.77;;;22.35;;
10154;SDS011;5118;48.570;7.916;2023-05-23T08:22:35;24.40;;;22.20;;
10154;SDS011;5118;48.570;7.916;2023-05-23T08:25:04;24.83;;;22.63;;
10154;SDS011;5118;48.570;7.916;2023-05-23T08:27:36;20.83;;;18.85;;
10154;SDS011;5118;48.570;7.916;2023-05-23T08:30:26;22.10;;;20.02;;
10154;SDS011;5118;48.570;7.916;2023-05-23T08:32:55;21.45;;;19.17;;
10154;SDS011;5118;48.570;7.916;2023-05-23T08:35:24;19.98;;;17.70;;
10154;SDS011;5118;48.570;7.916;2023-05-23T08:37:54;21.00;;;19.13;;
10154;SDS011;5118;48.570;7.916;2023-05-23T08:40:24;20.63;;;18.63;;
10154;SDS011;5118;48.570;7.916;2023-05-23T08:43:03;20.75;;;18.70;;
10154;SDS011;5118;48.570;7.916;2023-05-23T08:45:33;21.80;;;19.70;;
10154;SDS011;5118;48.570;7.916;2023-05-23T08:48:03;23.30;;;21.08;;
10154;SDS011;5118;48.570;7.916;2023-05-23T08:50:40;23.27;;;21.13;;
10154;SDS011;5118;48.570;7.916;2023-05-23T08:53:15;23.50;;;21.20;;
10154;SDS011;5118;48.570;7.916;2023-05-23T08:55:50;23.13;;;21.02;;
10154;SDS011;5118;48.570;7.916;2023-05-23T08:58:25;21.73;;;19.83;;
10154;SDS011;5118;48.570;7.916;2023-05-23T09:00:57;20.98;;;18.95;;
10154;SDS011;5118;48.570;7.916;2023-05-23T09:03:27;20.63;;;18.73;;
10154;SDS011;5118;48.570;7.916;2023-05-23T09:06:08;19.52;;;17.73;;
10154;SDS011;5118;48.570;7.916;2023-05-23T09:08:37;17.02;;;15.20;;
10154;SDS011;5118;48.570;7.916;2023-05-23T09:11:07;18.08;;;16.27;;
10154;SDS011;5118;48.570;7.916;2023-05-23T09:13:39;18.50;;;16.80;;
10154;SDS011;5118;48.570;7.916;2023-05-23T09:16:11;17.83;;;16.23;;
10154;SDS011;5118;48.570;7.916;2023-05-23T09:18:54;18.02;;;16.38;;
10154;SDS011;5118;48.570;7.916;2023-05-23T09:21:25;18.38;;;15.88;;
10154;SDS011;5118;48.570;7.916;2023-05-23T09:24:04;18.90;;;16.23;;
10154;SDS011;5118;48.570;7.916;2023-05-23T09:26:33;17.60;;;15.98;;
10154;SDS011;5118;48.570;7.916;2023-05-23T09:29:04;17.13;;;15.43;;
10154;SDS011;5118;48.570;7.916;2023-05-23T09:31:35;17.55;;;15.85;;
10154;SDS011;5118;48.570;7.916;2023-05-23T09:34:04;16.50;;;14.90;;
10154;SDS011;5118;48.570;7.916;2023-05-23T09:36:37;16.63;;;15.13;;
10154;SDS011;5118;48.570;7.916;2023-05-23T09:39:10;16.48;;;14.88;;
10154;SDS011;5118;48.570;7.916;2023-05-23T09:41:39;15.15;;;13.65;;
10154;SDS011;5118;48.570;7.916;2023-05-23T09:44:08;15.48;;;14.07;;
10154;SDS011;5118;48.570;7.916;2023-05-23T09:46:38;15.10;;;13.80;;
10154;SDS011;5118;48.570;7.916;2023-05-23T09:49:16;15.98;;;14.57;;
10154;SDS011;5118;48.570;7.916;2023-05-23T09:51:55;14.38;;;12.98;;
10154;SDS011;5118;48.570;7.916;2023-05-23T09:54:24;14.32;;;13.02;;
10154;SDS011;5118;48.570;7.916;2023-05-23T09:56:53;14.40;;;13.00;;
10154;SDS011;5118;48.570;7.916;2023-05-23T09:59:24;14.57;;;13.18;;
10154;SDS011;5118;48.570;7.916;2023-05-23T10:01:57;13.15;;;12.05;;
10154;SDS011;5118;48.570;7.916;2023-05-23T10:04:30;14.73;;;13.43;;
10154;SDS011;5118;48.570;7.916;2023-05-23T10:07:03;13.13;;;11.93;;
10154;SDS011;5118;48.570;7.916;2023-05-23T10:09:41;13.70;;;12.50;;
10154;SDS011;5118;48.570;7.916;2023-05-23T10:12:20;12.50;;;11.32;;
10154;SDS011;5118;48.570;7.916;2023-05-23T10:15:05;13.77;;;12.35;;
10154;SDS011;5118;48.570;7.916;2023-05-23T10:17:39;12.27;;;11.18;;
10154;SDS011;5118;48.570;7.916;2023-05-23T10:20:24;13.25;;;12.02;;
10154;SDS011;5118;48.570;7.916;2023-05-23T10:22:58;13.25;;;11.93;;
10154;SDS011;5118;48.570;7.916;2023-05-23T10:25:27;13.13;;;12.00;;
10154;SDS011;5118;48.570;7.916;2023-05-23T10:27:57;13.50;;;12.30;;
10154;SDS011;5118;48.570;7.916;2023-05-23T10:30:29;13.23;;;12.02;;
10154;SDS011;5118;48.570;7.916;2023-05-23T10:33:01;14.00;;;12.60;;
10154;SDS011;5118;48.570;7.916;2023-05-23T10:35:36;12.88;;;11.77;;
10154;SDS011;5118;48.570;7.916;2023-05-23T10:38:11;12.52;;;11.35;;
10154;SDS011;5118;48.570;7.916;2023-05-23T10:41:08;11.52;;;10.52;;
10154;SDS011;5118;48.570;7.916;2023-05-23T10:43:42;11.30;;;10.30;;
10154;SDS011;5118;48.570;7.916;2023-05-23T10:46:17;12.02;;;11.07;;
10154;SDS011;5118;48.570;7.916;2023-05-23T10:48:52;12.07;;;10.55;;
10154;SDS011;5118;48.570;7.916;2023-05-23T10:51:23;10.93;;;9.93;;
10154;SDS011;5118;48.570;7.916;2023-05-23T10:53:52;10.90;;;9.98;;
10154;SDS011;5118;48.570;7.916;2023-05-23T10:56:22;10.80;;;9.85;;
10154;SDS011;5118;48.570;7.916;2023-05-23T10:58:51;10.98;;;9.90;;
10154;SDS011;5118;48.570;7.916;2023-05-23T11:01:21;10.32;;;9.25;;
10154;SDS011;5118;48.570;7.916;2023-05-23T11:03:52;9.93;;;8.93;;
10154;SDS011;5118;48.570;7.916;2023-05-23T11:06:31;10.43;;;9.52;;
10154;SDS011;5118;48.570;7.916;2023-05-23T11:09:04;11.20;;;9.48;;
10154;SDS011;5118;48.570;7.916;2023-05-23T11:11:53;10.02;;;9.02;;
10154;SDS011;5118;48.570;7.916;2023-05-23T11:14:31;9.75;;;8.88;;
10154;SDS011;5118;48.570;7.916;2023-05-23T11:17:13;9.82;;;8.95;;
10154;SDS011;5118;48.570;7.916;2023-05-23T11:19:57;10.55;;;9.57;;
10154;SDS011;5118;48.570;7.916;2023-05-23T11:22:27;10.23;;;9.32;;
10154;SDS011;5118;48.570;7.916;2023-05-23T11:24:57;9.45;;;8.65;;
10154;SDS011;5118;48.570;7.916;2023-05-23T11:27:27;11.95;;;9.30;;
10154;SDS011;5118;48.570;7.916;2023-05-23T11:30:01;9.70;;;8.77;;
10154;SDS011;5118;48.570;7.916;2023-05-23T11:32:32;8.68;;;7.80;;
10154;SDS011;5118;48.570;7.916;2023-05-23T11:35:02;9.57;;;8.77;;
10154;SDS011;5118;48.570;7.916;2023-05-23T11:37:32;8.98;;;8.18;;
10154;SDS011;5118;48.570;7.916;2023-05-23T11:42:55;9.60;;;8.70;;
10154;SDS011;5118;48.570;7.916;2023-05-23T11:45:24;8.85;;;7.95;;
10154;SDS011;5118;48.570;7.916;2023-05-23T11:47:53;9.05;;;8.25;;
10154;SDS011;5118;48.570;7.916;2023-05-23T11:50:24;8.55;;;7.85;;
10154;SDS011;5118;48.570;7.916;2023-05-23T11:52:53;7.45;;;6.80;;
10154;SDS011;5118;48.570;7.916;2023-05-23T11:55:22;8.15;;;7.43;;
10154;SDS011;5118;48.570;7.916;2023-05-23T11:57:50;7.43;;;6.88;;
10154;SDS011;5118;48.570;7.916;2023-05-23T12:00:23;8.90;;;8.10;;
10154;SDS011;5118;48.570;7.916;2023-05-23T12:02:51;7.47;;;6.95;;
10154;SDS011;5118;48.570;7.916;2023-05-23T12:05:20;8.02;;;7.32;;
10154;SDS011;5118;48.570;7.916;2023-05-23T12:07:50;7.60;;;7.00;;
10154;SDS011;5118;48.570;7.916;2023-05-23T12:10:18;9.10;;;7.35;;
10154;SDS011;5118;48.570;7.916;2023-05-23T12:12:50;7.45;;;6.85;;
10154;SDS011;5118;48.570;7.916;2023-05-23T12:15:18;7.45;;;6.93;;
10154;SDS011;5118;48.570;7.916;2023-05-23T12:17:53;7.63;;;6.93;;
10154;SDS011;5118;48.570;7.916;2023-05-23T12:20:23;7.47;;;6.90;;
10154;SDS011;5118;48.570;7.916;2023-05-23T12:22:54;7.15;;;6.55;;
10154;SDS011;5118;48.570;7.916;2023-05-23T12:25:24;6.97;;;6.43;;
10154;SDS011;5118;48.570;7.916;2023-05-23T12:27:52;7.25;;;6.75;;
10154;SDS011;5118;48.570;7.916;2023-05-23T12:30:22;7.80;;;7.03;;
10154;SDS011;5118;48.570;7.916;2023-05-23T12:32:51;7.97;;;7.30;;
10154;SDS011;5118;48.570;7.916;2023-05-23T12:35:20;6.93;;;6.40;;
10154;SDS011;5118;48.570;7.916;2023-05-23T12:37:52;7.55;;;6.95;;
10154;SDS011;5118;48.570;7.916;2023-05-23T12:40:26;7.07;;;6.47;;
10154;SDS011;5118;48.570;7.916;2023-05-23T12:42:55;6.85;;;5.90;;
10154;SDS011;5118;48.570;7.916;2023-05-23T12:45:30;6.47;;;5.80;;
10154;SDS011;5118;48.570;7.916;2023-05-23T12:47:59;6.32;;;5.72;;
10154;SDS011;5118;48.570;7.916;2023-05-23T12:50:28;6.32;;;5.80;;
10154;SDS011;5118;48.570;7.916;2023-05-23T12:52:58;6.30;;;5.80;;
10154;SDS011;5118;48.570;7.916;2023-05-23T12:55:27;5.45;;;5.05;;
10154;SDS011;5118;48.570;7.916;2023-05-23T12:57:55;5.10;;;4.70;;
10154;SDS011;5118;48.570;7.916;2023-05-23T13:00:24;4.85;;;4.55;;
10154;SDS011;5118;48.570;7.916;2023-05-23T13:02:52;4.78;;;4.40;;
10154;SDS011;5118;48.570;7.916;2023-05-23T13:05:21;4.75;;;4.30;;
10154;SDS011;5118;48.570;7.916;2023-05-23T13:07:50;6.22;;;4.50;;
10154;SDS011;5118;48.570;7.916;2023-05-23T13:10:19;5.20;;;4.45;;
10154;SDS011;5118;48.570;7.916;2023-05-23T13:12:48;5.28;;;4.65;;
10154;SDS011;5118;48.570;7.916;2023-05-23T13:15:16;4.78;;;4.47;;
10154;SDS011;5118;48.570;7.916;2023-05-23T13:17:44;4.30;;;4.00;;
10154;SDS011;5118;48.570;7.916;2023-05-23T13:20:16;4.70;;;4.40;;
10154;SDS011;5118;48.570;7.916;2023-05-23T13:22:44;4.35;;;3.97;;
10154;SDS011;5118;48.570;7.916;2023-05-23T13:25:13;4.45;;;4.15;;
10154;SDS011;5118;48.570;7.916;2023-05-23T13:27:43;4.53;;;4.13;;
10154;SDS011;5118;48.570;7.916;2023-05-23T13:30:14;4.78;;;4.47;;
10154;SDS011;5118;48.570;7.916;2023-05-23T13:32:44;4.43;;;4.13;;
10154;SDS011;5118;48.570;7.916;2023-05-23T13:35:15;4.20;;;3.90;;
10154;SDS011;5118;48.570;7.916;2023-05-23T13:37:44;3.95;;;3.67;;
10154;SDS011;5118;48.570;7.916;2023-05-23T13:40:15;4.10;;;3.80;;
10154;SDS011;5118;48.570;7.916;2023-05-23T13:42:46;4.05;;;3.70;;
10154;SDS011;5118;48.570;7.916;2023-05-23T13:45:16;4.05;;;3.75;;
10154;SDS011;5118;48.570;7.916;2023-05-23T13:47:45;4.05;;;3.70;;
10154;SDS011;5118;48.570;7.916;2023-05-23T13:50:14;3.60;;;3.40;;
10154;SDS011;5118;48.570;7.916;2023-05-23T13:52:42;3.85;;;3.63;;
10154;SDS011;5118;48.570;7.916;2023-05-23T13:55:14;3.63;;;3.33;;
10154;SDS011;5118;48.570;7.916;2023-05-23T13:57:45;3.90;;;3.58;;
10154;SDS011;5118;48.570;7.916;2023-05-23T14:00:14;3.80;;;3.50;;
10154;SDS011;5118;48.570;7.916;2023-05-23T14:02:44;3.53;;;3.30;;
10154;SDS011;5118;48.570;7.916;2023-05-23T14:05:12;4.82;;;2.95;;
10154;SDS011;5118;48.570;7.916;2023-05-23T14:07:41;3.42;;;3.15;;
10154;SDS011;5118;48.570;7.916;2023-05-23T14:10:13;4.28;;;3.15;;
10154;SDS011;5118;48.570;7.916;2023-05-23T14:12:43;3.53;;;3.25;;
10154;SDS011;5118;48.570;7.916;2023-05-23T14:15:12;3.40;;;3.10;;
10154;SDS011;5118;48.570;7.916;2023-05-23T14:17:41;3.65;;;2.92;;
10154;SDS011;5118;48.570;7.916;2023-05-23T14:20:10;3.15;;;2.92;;
10154;SDS011;5118;48.570;7.916;2023-05-23T14:22:39;4.15;;;3.13;;
10154;SDS011;5118;48.570;7.916;2023-05-23T14:25:08;3.05;;;2.85;;
10154;SDS011;5118;48.570;7.916;2023-05-23T14:27:36;3.45;;;3.08;;
10154;SDS011;5118;48.570;7.916;2023-05-23T14:30:06;3.47;;;3.28;;
10154;SDS011;5118;48.570;7.916;2023-05-23T14:32:36;3.47;;;3.28;;
10154;SDS011;5118;48.570;7.916;2023-05-23T14:35:05;3.90;;;3.60;;
10154;SDS011;5118;48.570;7.916;2023-05-23T14:37:36;4.15;;;3.45;;
10154;SDS011;5118;48.570;7.916;2023-05-23T14:40:05;3.45;;;3.25;;
10154;SDS011;5118;48.570;7.916;2023-05-23T14:42:35;3.85;;;3.55;;
10154;SDS011;5118;48.570;7.916;2023-05-23T14:45:04;3.50;;;3.30;;
10154;SDS011;5118;48.570;7.916;2023-05-23T14:47:33;3.33;;;3.13;;
10154;SDS011;5118;48.570;7.916;2023-05-23T14:50:04;3.40;;;3.10;;
10154;SDS011;5118;48.570;7.916;2023-05-23T14:52:33;5.15;;;3.22;;
10154;SDS011;5118;48.570;7.916;2023-05-23T14:55:02;4.10;;;2.97;;
10154;SDS011;5118;48.570;7.916;2023-05-23T14:57:30;3.88;;;3.13;;
10154;SDS011;5118;48.570;7.916;2023-05-23T14:59:59;3.30;;;3.00;;
10154;SDS011;5118;48.570;7.916;2023-05-23T15:02:28;3.50;;;3.20;;
10154;SDS011;5118;48.570;7.916;2023-05-23T15:04:57;4.25;;;3.03;;